Ride Results

Berringa Moonlight Endurance ride (28-08-2010)
Ride distance: 80.0 km

Outcomes - Berringa Moonlight Endurance ride (28-08-2010)
Division No. of Entries Retired / DNE Completed Withdrawn Ineligible V/O Percentage Completed
HW 2 - 2 - - - 100.00%
MW 8 - 8 - - - 100.00%
LW 10 - 7 2 - 1 70.00%
JN 3 - 2 - - 1 66.67%
Totals 23 - 19 2 - 2 82.61%
Results - Berringa Moonlight Endurance ride (28-08-2010)
No. Rider Horse Place Time Leg Speeds Total
Km/Hr
H/R bpm
Heavyweight
82 Jarrod Robinson Splitters Creek Vienna 1 (BC) 5:40:00 14.3, 13.8 14.12 36, 40, 45 (Avg:42)
4 Jennifer Green Cameo Goldfinger 2 7:31:00 11.4, 9.9 10.64 28, 42, 51 (Avg:46)
Middleweight
215 Kim Fitzpatrick Cieanna 1 4:45:00 17.6, 16.1 16.84 36, 42, 47 (Avg:44)
33 Vanessa Perry Conderosa Sovuryn 1 (BC) 4:45:00 17.6, 16.1 16.84 36, 44, 40 (Avg:42)
42 Hans Peuker Marybank Celia 3 5:10:00 16.3, 14.7 15.48 34, 40, 42 (Avg:41)
67 John Osboldstone Granjen Ruben James 4 5:11:00 17.6, 13.7 15.43 36, 46, 48 (Avg:47)
219 Caroline Noble Phil 4 Phree 5 6:40:00 12.5, 11.4 12.00 36, 45, 42 (Avg:43)
130 Jennifer Carland Musical Gully Tenor 6 6:45:00 13.4, 10.5 11.85 42, 46, 54 (Avg:50)
351 Steve Blackhurst Rowallan Nara 7 7:22:00 11.5, 10.2 10.86 32, 34, 42 (Avg:38)
759 Brooke White Drumlin Hobart 7 7:22:00 11.5, 10.2 10.86 36, 38, 44 (Avg:41)
Lightweight
183 Nicky Robinson Sterling Nakeeta 1 (BC) 5:11:00 16.2, 14.7 15.43 42, 46, 52 (Avg:49)
91 Kim Noble Brodie 2 5:39:00 15.7, 12.8 14.16 38, 44, 45 (Avg:44)
208 Janeen Smith Taylorsglen Renegade 3 6:45:00 13.4, 10.5 11.85 32, 46, 44 (Avg:45)
151 Kasey Thomas Yalandra Charisma 4 6:58:00 12.3, 10.7 11.48 35, 39, 43 (Avg:41)
87 Adrienne Smith Jeddah 5 7:07:00 10.0, 12.6 11.24 28, 52, 42 (Avg:47)
11 Rohan Stanes Shuja Bint Melika 6 7:31:00 11.4, 9.9 10.64 32, 36, 38 (Avg:37)
73 Rachael Saunders Big Charles 7 8:20:00 9.9, 9.2 9.60 36, 42, 44 (Avg:43)
742 Tanya Perry LustreD'Amour Lame L2 0:00:00 11.3, 10.0 - 40, 53, 52 (Avg:52)
61 Lois Sharam Musical Gully Carousel Withdrawn L2 0:00:00 - - 44, 48, 47 (Avg:47)
114 Helen Spencer Musical Gully Zanadu Withdrawn L1 0:00:00 - - 28, 38 (Avg:38)
Junior
90 Samantha Noble Springridge Bungendore 1 (BC) 5:39:00 15.7, 12.8 14.16 32, 35, 44 (Avg:39)
148 Stevie-lyn Oborne LadyBlaze 2 7:30:00 11.4, 9.9 10.67 40, 43, 52 (Avg:47)
756 Thomas Reay CaohminHank Lame L2 0:00:00 9.9, 9.2 - 39, 42, 48 (Avg:45)